sensor_id;sensor_type;location;lat;lon;timestamp;P1;durP1;ratioP1;P2;durP2;ratioP2
11000;SDS011;5553;48.506;8.870;2023-02-22T00:00:55;8.07;;;5.20;;
11000;SDS011;5553;48.506;8.870;2023-02-22T00:03:27;8.10;;;5.53;;
11000;SDS011;5553;48.506;8.870;2023-02-22T00:05:57;10.23;;;4.17;;
11000;SDS011;5553;48.506;8.870;2023-02-22T04:29:45;13.67;;;5.53;;
11000;SDS011;5553;48.506;8.870;2023-02-22T04:32:13;8.10;;;5.00;;
11000;SDS011;5553;48.506;8.870;2023-02-22T04:34:42;9.17;;;5.33;;
11000;SDS011;5553;48.506;8.870;2023-02-22T04:37:10;8.70;;;5.60;;
11000;SDS011;5553;48.506;8.870;2023-02-22T04:39:38;8.07;;;5.10;;
11000;SDS011;5553;48.506;8.870;2023-02-22T04:42:06;10.97;;;5.80;;
11000;SDS011;5553;48.506;8.870;2023-02-22T04:44:35;8.00;;;5.00;;
11000;SDS011;5553;48.506;8.870;2023-02-22T04:47:06;12.20;;;6.13;;
11000;SDS011;5553;48.506;8.870;2023-02-22T04:49:34;8.93;;;5.40;;
11000;SDS011;5553;48.506;8.870;2023-02-22T04:52:02;7.37;;;5.07;;
11000;SDS011;5553;48.506;8.870;2023-02-22T04:54:30;10.47;;;5.53;;
11000;SDS011;5553;48.506;8.870;2023-02-22T04:56:59;8.70;;;5.53;;
11000;SDS011;5553;48.506;8.870;2023-02-22T04:59:27;12.30;;;7.93;;
11000;SDS011;5553;48.506;8.870;2023-02-22T05:01:57;11.60;;;6.20;;
11000;SDS011;5553;48.506;8.870;2023-02-22T05:04:28;10.57;;;5.33;;
11000;SDS011;5553;48.506;8.870;2023-02-22T05:06:56;10.13;;;6.30;;
11000;SDS011;5553;48.506;8.870;2023-02-22T05:09:24;10.47;;;6.67;;
11000;SDS011;5553;48.506;8.870;2023-02-22T05:18:27;7.73;;;5.53;;
11000;SDS011;5553;48.506;8.870;2023-02-22T05:20:57;13.30;;;5.90;;
11000;SDS011;5553;48.506;8.870;2023-02-22T05:23:26;10.80;;;6.00;;
11000;SDS011;5553;48.506;8.870;2023-02-22T05:25:54;10.03;;;6.33;;
11000;SDS011;5553;48.506;8.870;2023-02-22T05:28:22;9.03;;;6.17;;
11000;SDS011;5553;48.506;8.870;2023-02-22T05:30:50;11.90;;;6.50;;
11000;SDS011;5553;48.506;8.870;2023-02-22T05:33:19;9.13;;;6.20;;
11000;SDS011;5553;48.506;8.870;2023-02-22T05:35:47;7.53;;;5.57;;
11000;SDS011;5553;48.506;8.870;2023-02-22T05:38:18;12.70;;;6.50;;
11000;SDS011;5553;48.506;8.870;2023-02-22T05:40:47;7.90;;;5.67;;
11000;SDS011;5553;48.506;8.870;2023-02-22T05:43:15;9.43;;;6.03;;
11000;SDS011;5553;48.506;8.870;2023-02-22T05:45:44;9.43;;;5.73;;
11000;SDS011;5553;48.506;8.870;2023-02-22T05:48:13;11.50;;;5.40;;
11000;SDS011;5553;48.506;8.870;2023-02-22T05:50:41;10.70;;;5.83;;
11000;SDS011;5553;48.506;8.870;2023-02-22T05:53:09;11.20;;;6.67;;
11000;SDS011;5553;48.506;8.870;2023-02-22T05:55:40;12.90;;;6.50;;
11000;SDS011;5553;48.506;8.870;2023-02-22T05:58:08;13.30;;;6.00;;
11000;SDS011;5553;48.506;8.870;2023-02-22T06:00:37;11.43;;;5.60;;
11000;SDS011;5553;48.506;8.870;2023-02-22T06:03:05;9.53;;;6.43;;
11000;SDS011;5553;48.506;8.870;2023-02-22T06:05:35;11.30;;;5.73;;
11000;SDS011;5553;48.506;8.870;2023-02-22T06:08:05;12.23;;;6.33;;
11000;SDS011;5553;48.506;8.870;2023-02-22T06:10:34;12.20;;;7.30;;
11000;SDS011;5553;48.506;8.870;2023-02-22T06:13:05;10.30;;;6.10;;
11000;SDS011;5553;48.506;8.870;2023-02-22T06:15:33;6.63;;;5.30;;
11000;SDS011;5553;48.506;8.870;2023-02-22T06:18:01;7.83;;;6.03;;
11000;SDS011;5553;48.506;8.870;2023-02-22T06:20:30;11.40;;;6.80;;
11000;SDS011;5553;48.506;8.870;2023-02-22T06:22:59;8.77;;;6.00;;
11000;SDS011;5553;48.506;8.870;2023-02-22T06:25:28;12.00;;;6.63;;
11000;SDS011;5553;48.506;8.870;2023-02-22T06:27:58;10.60;;;6.40;;
11000;SDS011;5553;48.506;8.870;2023-02-22T06:30:29;10.83;;;6.80;;
11000;SDS011;5553;48.506;8.870;2023-02-22T06:32:58;10.73;;;6.70;;
11000;SDS011;5553;48.506;8.870;2023-02-22T06:35:26;12.50;;;7.00;;
11000;SDS011;5553;48.506;8.870;2023-02-22T06:37:54;10.93;;;6.80;;
11000;SDS011;5553;48.506;8.870;2023-02-22T06:40:22;11.57;;;7.00;;
11000;SDS011;5553;48.506;8.870;2023-02-22T06:42:53;10.60;;;7.20;;
11000;SDS011;5553;48.506;8.870;2023-02-22T06:45:22;12.40;;;6.10;;
11000;SDS011;5553;48.506;8.870;2023-02-22T06:47:53;9.90;;;6.27;;
11000;SDS011;5553;48.506;8.870;2023-02-22T06:50:23;8.47;;;5.83;;
11000;SDS011;5553;48.506;8.870;2023-02-22T06:52:53;8.77;;;6.53;;
11000;SDS011;5553;48.506;8.870;2023-02-22T06:55:22;9.13;;;6.03;;
11000;SDS011;5553;48.506;8.870;2023-02-22T06:57:52;10.60;;;6.20;;
11000;SDS011;5553;48.506;8.870;2023-02-22T07:00:21;9.57;;;6.07;;
11000;SDS011;5553;48.506;8.870;2023-02-22T07:02:53;8.50;;;5.80;;
11000;SDS011;5553;48.506;8.870;2023-02-22T07:05:22;8.73;;;6.33;;
11000;SDS011;5553;48.506;8.870;2023-02-22T07:07:52;8.90;;;5.70;;
11000;SDS011;5553;48.506;8.870;2023-02-22T07:10:23;10.33;;;6.07;;
11000;SDS011;5553;48.506;8.870;2023-02-22T07:12:52;8.50;;;5.80;;
11000;SDS011;5553;48.506;8.870;2023-02-22T07:15:21;8.50;;;5.57;;
11000;SDS011;5553;48.506;8.870;2023-02-22T07:17:54;8.43;;;5.57;;
11000;SDS011;5553;48.506;8.870;2023-02-22T07:20:23;13.60;;;6.50;;
11000;SDS011;5553;48.506;8.870;2023-02-22T07:22:53;12.23;;;6.20;;
11000;SDS011;5553;48.506;8.870;2023-02-22T07:25:21;13.90;;;4.70;;
11000;SDS011;5553;48.506;8.870;2023-02-22T07:27:50;9.60;;;6.70;;
11000;SDS011;5553;48.506;8.870;2023-02-22T07:30:20;10.93;;;5.70;;
11000;SDS011;5553;48.506;8.870;2023-02-22T07:32:57;10.83;;;7.00;;
11000;SDS011;5553;48.506;8.870;2023-02-22T07:35:27;9.90;;;5.90;;
11000;SDS011;5553;48.506;8.870;2023-02-22T07:37:56;11.30;;;6.20;;
11000;SDS011;5553;48.506;8.870;2023-02-22T07:40:25;9.60;;;6.10;;
11000;SDS011;5553;48.506;8.870;2023-02-22T07:42:54;8.00;;;5.83;;
11000;SDS011;5553;48.506;8.870;2023-02-22T07:45:25;10.13;;;6.07;;
11000;SDS011;5553;48.506;8.870;2023-02-22T07:47:57;9.83;;;5.57;;
11000;SDS011;5553;48.506;8.870;2023-02-22T07:50:27;8.47;;;5.30;;
11000;SDS011;5553;48.506;8.870;2023-02-22T07:52:58;9.07;;;5.57;;
11000;SDS011;5553;48.506;8.870;2023-02-22T07:55:27;11.07;;;6.90;;
11000;SDS011;5553;48.506;8.870;2023-02-22T07:57:58;8.50;;;6.17;;
11000;SDS011;5553;48.506;8.870;2023-02-22T08:00:28;7.30;;;5.67;;
11000;SDS011;5553;48.506;8.870;2023-02-22T08:03:00;8.00;;;4.93;;
11000;SDS011;5553;48.506;8.870;2023-02-22T08:05:31;9.70;;;5.70;;
11000;SDS011;5553;48.506;8.870;2023-02-22T08:08:03;7.73;;;5.63;;
11000;SDS011;5553;48.506;8.870;2023-02-22T08:10:33;13.60;;;6.07;;
11000;SDS011;5553;48.506;8.870;2023-02-22T08:13:03;9.63;;;5.83;;
11000;SDS011;5553;48.506;8.870;2023-02-22T08:15:32;9.13;;;5.73;;
11000;SDS011;5553;48.506;8.870;2023-02-22T08:18:05;7.83;;;5.50;;
11000;SDS011;5553;48.506;8.870;2023-02-22T08:20:35;15.07;;;6.77;;
11000;SDS011;5553;48.506;8.870;2023-02-22T08:23:05;8.30;;;5.63;;
11000;SDS011;5553;48.506;8.870;2023-02-22T08:25:34;9.13;;;5.37;;
11000;SDS011;5553;48.506;8.870;2023-02-22T08:28:04;9.10;;;5.43;;
11000;SDS011;5553;48.506;8.870;2023-02-22T08:30:33;7.80;;;5.73;;
11000;SDS011;5553;48.506;8.870;2023-02-22T08:33:05;8.87;;;5.47;;
11000;SDS011;5553;48.506;8.870;2023-02-22T08:35:34;10.00;;;5.40;;
11000;SDS011;5553;48.506;8.870;2023-02-22T08:38:05;10.20;;;5.03;;
11000;SDS011;5553;48.506;8.870;2023-02-22T08:46:12;9.67;;;6.20;;
11000;SDS011;5553;48.506;8.870;2023-02-22T08:51:16;11.10;;;5.50;;
11000;SDS011;5553;48.506;8.870;2023-02-22T08:53:45;14.87;;;5.17;;
11000;SDS011;5553;48.506;8.870;2023-02-22T08:56:15;10.30;;;4.97;;
11000;SDS011;5553;48.506;8.870;2023-02-22T09:01:12;8.47;;;5.27;;
11000;SDS011;5553;48.506;8.870;2023-02-22T09:03:41;10.70;;;5.33;;
11000;SDS011;5553;48.506;8.870;2023-02-22T09:15:28;8.10;;;5.30;;
11000;SDS011;5553;48.506;8.870;2023-02-22T09:17:58;9.63;;;5.60;;
11000;SDS011;5553;48.506;8.870;2023-02-22T09:20:27;7.43;;;5.83;;
11000;SDS011;5553;48.506;8.870;2023-02-22T09:22:55;7.23;;;4.57;;
11000;SDS011;5553;48.506;8.870;2023-02-22T09:25:24;11.87;;;5.80;;
11000;SDS011;5553;48.506;8.870;2023-02-22T09:27:52;8.90;;;5.47;;
11000;SDS011;5553;48.506;8.870;2023-02-22T09:30:25;7.63;;;5.60;;
11000;SDS011;5553;48.506;8.870;2023-02-22T09:32:56;7.50;;;5.73;;
11000;SDS011;5553;48.506;8.870;2023-02-22T09:35:26;9.17;;;6.70;;
11000;SDS011;5553;48.506;8.870;2023-02-22T09:37:54;7.70;;;5.63;;
11000;SDS011;5553;48.506;8.870;2023-02-22T09:40:24;7.70;;;5.63;;
11000;SDS011;5553;48.506;8.870;2023-02-22T09:42:59;6.93;;;5.10;;
11000;SDS011;5553;48.506;8.870;2023-02-22T09:45:38;6.90;;;5.70;;
11000;SDS011;5553;48.506;8.870;2023-02-22T09:48:15;8.03;;;5.50;;
11000;SDS011;5553;48.506;8.870;2023-02-22T09:50:45;7.90;;;4.93;;
11000;SDS011;5553;48.506;8.870;2023-02-22T09:53:18;6.80;;;5.10;;
11000;SDS011;5553;48.506;8.870;2023-02-22T09:55:54;7.70;;;5.37;;
11000;SDS011;5553;48.506;8.870;2023-02-22T09:58:29;7.73;;;4.97;;
11000;SDS011;5553;48.506;8.870;2023-02-22T10:01:06;8.67;;;5.37;;
11000;SDS011;5553;48.506;8.870;2023-02-22T10:03:46;10.40;;;4.80;;
11000;SDS011;5553;48.506;8.870;2023-02-22T10:06:19;10.97;;;6.23;;
11000;SDS011;5553;48.506;8.870;2023-02-22T10:08:50;8.17;;;6.07;;
11000;SDS011;5553;48.506;8.870;2023-02-22T10:11:25;7.90;;;6.20;;
11000;SDS011;5553;48.506;8.870;2023-02-22T10:14:04;6.57;;;5.80;;
11000;SDS011;5553;48.506;8.870;2023-02-22T10:16:51;7.87;;;6.13;;
11000;SDS011;5553;48.506;8.870;2023-02-22T10:19:26;9.60;;;6.60;;
11000;SDS011;5553;48.506;8.870;2023-02-22T10:22:13;8.20;;;6.43;;
11000;SDS011;5553;48.506;8.870;2023-02-22T10:24:51;7.87;;;6.17;;
11000;SDS011;5553;48.506;8.870;2023-02-22T10:27:27;10.00;;;6.33;;
11000;SDS011;5553;48.506;8.870;2023-02-22T10:30:13;11.13;;;6.73;;
11000;SDS011;5553;48.506;8.870;2023-02-22T10:32:50;8.73;;;7.23;;
11000;SDS011;5553;48.506;8.870;2023-02-22T10:35:23;11.57;;;7.93;;
11000;SDS011;5553;48.506;8.870;2023-02-22T10:37:55;9.67;;;7.73;;
11000;SDS011;5553;48.506;8.870;2023-02-22T10:40:26;11.23;;;8.13;;
11000;SDS011;5553;48.506;8.870;2023-02-22T10:43:01;9.63;;;7.60;;
11000;SDS011;5553;48.506;8.870;2023-02-22T10:45:32;16.87;;;9.20;;
11000;SDS011;5553;48.506;8.870;2023-02-22T10:48:06;11.93;;;9.00;;
11000;SDS011;5553;48.506;8.870;2023-02-22T10:50:36;11.30;;;8.77;;
11000;SDS011;5553;48.506;8.870;2023-02-22T10:53:06;13.27;;;10.00;;
11000;SDS011;5553;48.506;8.870;2023-02-22T10:55:35;18.80;;;10.03;;
11000;SDS011;5553;48.506;8.870;2023-02-22T10:58:26;13.43;;;9.83;;
11000;SDS011;5553;48.506;8.870;2023-02-22T11:23:13;11.80;;;8.30;;
11000;SDS011;5553;48.506;8.870;2023-02-22T11:25:50;11.43;;;8.60;;
11000;SDS011;5553;48.506;8.870;2023-02-22T11:28:29;11.80;;;8.27;;
11000;SDS011;5553;48.506;8.870;2023-02-22T11:31:07;10.00;;;7.90;;
11000;SDS011;5553;48.506;8.870;2023-02-22T11:33:44;12.53;;;8.67;;
11000;SDS011;5553;48.506;8.870;2023-02-22T11:36:28;12.37;;;8.93;;
11000;SDS011;5553;48.506;8.870;2023-02-22T11:39:04;14.23;;;9.80;;
11000;SDS011;5553;48.506;8.870;2023-02-22T11:41:47;10.57;;;8.30;;
11000;SDS011;5553;48.506;8.870;2023-02-22T11:44:23;11.87;;;8.60;;
11000;SDS011;5553;48.506;8.870;2023-02-22T11:46:54;12.50;;;8.63;;
11000;SDS011;5553;48.506;8.870;2023-02-22T11:49:31;12.07;;;8.03;;
11000;SDS011;5553;48.506;8.870;2023-02-22T11:52:09;9.70;;;8.17;;
11000;SDS011;5553;48.506;8.870;2023-02-22T11:57:49;9.50;;;7.70;;
11000;SDS011;5553;48.506;8.870;2023-02-22T12:00:31;10.63;;;7.80;;
11000;SDS011;5553;48.506;8.870;2023-02-22T12:03:12;11.83;;;8.73;;
11000;SDS011;5553;48.506;8.870;2023-02-22T12:12:24;12.63;;;8.43;;
11000;SDS011;5553;48.506;8.870;2023-02-22T12:15:02;11.80;;;8.40;;
11000;SDS011;5553;48.506;8.870;2023-02-22T12:17:47;8.93;;;7.50;;
11000;SDS011;5553;48.506;8.870;2023-02-22T12:20:35;12.83;;;8.30;;
11000;SDS011;5553;48.506;8.870;2023-02-22T12:23:12;8.77;;;7.57;;
11000;SDS011;5553;48.506;8.870;2023-02-22T12:25:54;8.73;;;7.40;;
11000;SDS011;5553;48.506;8.870;2023-02-22T12:28:32;10.23;;;7.13;;
11000;SDS011;5553;48.506;8.870;2023-02-22T12:31:05;9.70;;;6.90;;
11000;SDS011;5553;48.506;8.870;2023-02-22T12:33:46;7.60;;;6.53;;
11000;SDS011;5553;48.506;8.870;2023-02-22T12:36:23;10.47;;;7.50;;
11000;SDS011;5553;48.506;8.870;2023-02-22T14:14:11;22.50;;;12.67;;
11000;SDS011;5553;48.506;8.870;2023-02-22T14:16:42;10.73;;;7.73;;
11000;SDS011;5553;48.506;8.870;2023-02-22T14:19:14;9.67;;;7.50;;
11000;SDS011;5553;48.506;8.870;2023-02-22T14:21:54;10.73;;;7.43;;
11000;SDS011;5553;48.506;8.870;2023-02-22T14:24:26;15.23;;;8.37;;
11000;SDS011;5553;48.506;8.870;2023-02-22T14:26:59;9.50;;;7.03;;
11000;SDS011;5553;48.506;8.870;2023-02-22T14:29:32;12.63;;;7.30;;
11000;SDS011;5553;48.506;8.870;2023-02-22T14:32:04;12.80;;;7.50;;
11000;SDS011;5553;48.506;8.870;2023-02-22T14:34:41;9.33;;;7.00;;
11000;SDS011;5553;48.506;8.870;2023-02-22T14:37:13;10.40;;;7.67;;
11000;SDS011;5553;48.506;8.870;2023-02-22T14:39:45;12.63;;;7.17;;
11000;SDS011;5553;48.506;8.870;2023-02-22T14:42:17;12.53;;;7.30;;
11000;SDS011;5553;48.506;8.870;2023-02-22T14:44:55;18.90;;;9.97;;
11000;SDS011;5553;48.506;8.870;2023-02-22T14:47:27;11.37;;;7.50;;
11000;SDS011;5553;48.506;8.870;2023-02-22T14:50:04;9.40;;;6.90;;
11000;SDS011;5553;48.506;8.870;2023-02-22T14:52:39;8.57;;;6.70;;
11000;SDS011;5553;48.506;8.870;2023-02-22T14:55:13;11.53;;;7.50;;
11000;SDS011;5553;48.506;8.870;2023-02-22T14:57:47;9.17;;;5.70;;
11000;SDS011;5553;48.506;8.870;2023-02-22T15:00:25;10.73;;;6.50;;
11000;SDS011;5553;48.506;8.870;2023-02-22T15:02:58;14.83;;;7.60;;
11000;SDS011;5553;48.506;8.870;2023-02-22T15:05:33;11.00;;;7.00;;
11000;SDS011;5553;48.506;8.870;2023-02-22T15:08:04;8.73;;;6.60;;
11000;SDS011;5553;48.506;8.870;2023-02-22T15:10:39;18.93;;;7.00;;
11000;SDS011;5553;48.506;8.870;2023-02-22T15:13:13;11.47;;;7.10;;
11000;SDS011;5553;48.506;8.870;2023-02-22T15:15:47;9.90;;;6.70;;
11000;SDS011;5553;48.506;8.870;2023-02-22T15:18:23;12.13;;;7.80;;
11000;SDS011;5553;48.506;8.870;2023-02-22T15:20:54;11.40;;;7.33;;
11000;SDS011;5553;48.506;8.870;2023-02-22T15:23:26;12.20;;;8.20;;
11000;SDS011;5553;48.506;8.870;2023-02-22T15:25:57;15.03;;;6.77;;
11000;SDS011;5553;48.506;8.870;2023-02-22T15:28:26;11.90;;;8.03;;
11000;SDS011;5553;48.506;8.870;2023-02-22T15:36:49;11.27;;;6.30;;
11000;SDS011;5553;48.506;8.870;2023-02-22T15:39:19;10.57;;;6.83;;
11000;SDS011;5553;48.506;8.870;2023-02-22T15:41:59;12.80;;;6.70;;
11000;SDS011;5553;48.506;8.870;2023-02-22T15:44:33;11.50;;;6.57;;
11000;SDS011;5553;48.506;8.870;2023-02-22T15:47:03;10.97;;;7.17;;
11000;SDS011;5553;48.506;8.870;2023-02-22T15:49:33;14.70;;;7.30;;
11000;SDS011;5553;48.506;8.870;2023-02-22T15:52:06;12.57;;;6.67;;
11000;SDS011;5553;48.506;8.870;2023-02-22T15:54:37;15.57;;;7.30;;
11000;SDS011;5553;48.506;8.870;2023-02-22T15:57:07;9.50;;;7.60;;
11000;SDS011;5553;48.506;8.870;2023-02-22T15:59:39;14.77;;;10.37;;
11000;SDS011;5553;48.506;8.870;2023-02-22T16:02:27;15.20;;;9.60;;
11000;SDS011;5553;48.506;8.870;2023-02-22T16:05:03;17.30;;;9.73;;
11000;SDS011;5553;48.506;8.870;2023-02-22T16:07:35;14.73;;;9.83;;
11000;SDS011;5553;48.506;8.870;2023-02-22T16:10:15;15.50;;;10.60;;
11000;SDS011;5553;48.506;8.870;2023-02-22T16:12:58;16.23;;;11.70;;
11000;SDS011;5553;48.506;8.870;2023-02-22T16:15:34;17.00;;;10.37;;
11000;SDS011;5553;48.506;8.870;2023-02-22T16:21:02;17.17;;;10.97;;
11000;SDS011;5553;48.506;8.870;2023-02-22T16:23:41;14.77;;;10.07;;
11000;SDS011;5553;48.506;8.870;2023-02-22T16:26:22;14.63;;;10.03;;
11000;SDS011;5553;48.506;8.870;2023-02-22T16:28:54;15.70;;;11.40;;
11000;SDS011;5553;48.506;8.870;2023-02-22T16:31:24;17.87;;;10.60;;
11000;SDS011;5553;48.506;8.870;2023-02-22T16:33:57;19.10;;;10.80;;
11000;SDS011;5553;48.506;8.870;2023-02-22T16:36:37;14.30;;;10.17;;
11000;SDS011;5553;48.506;8.870;2023-02-22T16:39:09;19.03;;;9.87;;
11000;SDS011;5553;48.506;8.870;2023-02-22T16:41:43;15.17;;;10.30;;
11000;SDS011;5553;48.506;8.870;2023-02-22T16:44:11;17.23;;;11.10;;
11000;SDS011;5553;48.506;8.870;2023-02-22T16:46:41;16.03;;;11.47;;
11000;SDS011;5553;48.506;8.870;2023-02-22T16:49:10;18.83;;;11.10;;
11000;SDS011;5553;48.506;8.870;2023-02-22T16:51:43;17.00;;;11.43;;
11000;SDS011;5553;48.506;8.870;2023-02-22T16:54:18;20.93;;;12.23;;
11000;SDS011;5553;48.506;8.870;2023-02-22T16:56:49;26.37;;;11.40;;
11000;SDS011;5553;48.506;8.870;2023-02-22T16:59:18;22.13;;;12.00;;
11000;SDS011;5553;48.506;8.870;2023-02-22T17:01:46;18.27;;;10.97;;
11000;SDS011;5553;48.506;8.870;2023-02-22T17:04:17;17.13;;;11.70;;
11000;SDS011;5553;48.506;8.870;2023-02-22T17:06:49;17.80;;;11.93;;
11000;SDS011;5553;48.506;8.870;2023-02-22T17:09:17;17.03;;;10.53;;
11000;SDS011;5553;48.506;8.870;2023-02-22T17:11:47;20.43;;;13.43;;
11000;SDS011;5553;48.506;8.870;2023-02-22T17:14:17;17.33;;;11.77;;
11000;SDS011;5553;48.506;8.870;2023-02-22T17:16:48;22.57;;;12.73;;
11000;SDS011;5553;48.506;8.870;2023-02-22T17:19:17;18.93;;;13.13;;
11000;SDS011;5553;48.506;8.870;2023-02-22T17:21:49;21.00;;;12.87;;
11000;SDS011;5553;48.506;8.870;2023-02-22T17:24:18;22.73;;;13.83;;
11000;SDS011;5553;48.506;8.870;2023-02-22T17:26:53;17.23;;;12.50;;
11000;SDS011;5553;48.506;8.870;2023-02-22T17:29:23;17.97;;;12.40;;
11000;SDS011;5553;48.506;8.870;2023-02-22T17:31:51;23.33;;;13.40;;
11000;SDS011;5553;48.506;8.870;2023-02-22T17:34:20;16.60;;;11.80;;
11000;SDS011;5553;48.506;8.870;2023-02-22T17:36:51;26.13;;;14.40;;
11000;SDS011;5553;48.506;8.870;2023-02-22T17:39:19;21.37;;;14.00;;
11000;SDS011;5553;48.506;8.870;2023-02-22T17:41:48;25.00;;;14.10;;
11000;SDS011;5553;48.506;8.870;2023-02-22T17:44:21;20.87;;;13.50;;
11000;SDS011;5553;48.506;8.870;2023-02-22T17:46:49;19.70;;;14.20;;
11000;SDS011;5553;48.506;8.870;2023-02-22T17:49:18;25.30;;;14.33;;
11000;SDS011;5553;48.506;8.870;2023-02-22T17:51:46;21.27;;;13.23;;
11000;SDS011;5553;48.506;8.870;2023-02-22T17:54:19;18.77;;;13.97;;
11000;SDS011;5553;48.506;8.870;2023-02-22T17:56:48;20.67;;;13.37;;
11000;SDS011;5553;48.506;8.870;2023-02-22T17:59:16;22.10;;;13.50;;
11000;SDS011;5553;48.506;8.870;2023-02-22T18:01:45;21.50;;;15.37;;
11000;SDS011;5553;48.506;8.870;2023-02-22T18:04:13;23.50;;;14.33;;
11000;SDS011;5553;48.506;8.870;2023-02-22T18:06:41;23.27;;;14.80;;
11000;SDS011;5553;48.506;8.870;2023-02-22T18:09:10;22.60;;;14.63;;
11000;SDS011;5553;48.506;8.870;2023-02-22T18:11:44;23.37;;;15.47;;
11000;SDS011;5553;48.506;8.870;2023-02-22T18:14:12;22.63;;;15.00;;
11000;SDS011;5553;48.506;8.870;2023-02-22T18:16:40;27.43;;;15.90;;
11000;SDS011;5553;48.506;8.870;2023-02-22T18:19:10;25.37;;;15.63;;
11000;SDS011;5553;48.506;8.870;2023-02-22T18:21:43;24.47;;;15.17;;
11000;SDS011;5553;48.506;8.870;2023-02-22T18:24:11;24.53;;;15.23;;
11000;SDS011;5553;48.506;8.870;2023-02-22T18:26:43;25.17;;;13.97;;
11000;SDS011;5553;48.506;8.870;2023-02-22T18:29:12;24.17;;;16.20;;
11000;SDS011;5553;48.506;8.870;2023-02-22T18:31:40;25.53;;;16.27;;
11000;SDS011;5553;48.506;8.870;2023-02-22T18:34:09;27.67;;;16.63;;
11000;SDS011;5553;48.506;8.870;2023-02-22T18:36:39;24.23;;;15.80;;
11000;SDS011;5553;48.506;8.870;2023-02-22T18:39:08;29.20;;;16.73;;
11000;SDS011;5553;48.506;8.870;2023-02-22T18:41:37;24.00;;;14.73;;
11000;SDS011;5553;48.506;8.870;2023-02-22T18:44:08;24.43;;;15.23;;
11000;SDS011;5553;48.506;8.870;2023-02-22T18:46:36;26.70;;;16.40;;
11000;SDS011;5553;48.506;8.870;2023-02-22T18:49:05;22.90;;;15.67;;
11000;SDS011;5553;48.506;8.870;2023-02-22T18:51:33;28.17;;;17.63;;
11000;SDS011;5553;48.506;8.870;2023-02-22T18:54:03;24.63;;;15.10;;
11000;SDS011;5553;48.506;8.870;2023-02-22T18:56:32;24.17;;;15.50;;
11000;SDS011;5553;48.506;8.870;2023-02-22T18:59:01;28.67;;;15.50;;
11000;SDS011;5553;48.506;8.870;2023-02-22T19:01:34;21.07;;;14.37;;
11000;SDS011;5553;48.506;8.870;2023-02-22T19:04:03;22.10;;;14.60;;
11000;SDS011;5553;48.506;8.870;2023-02-22T19:06:33;23.30;;;14.17;;
11000;SDS011;5553;48.506;8.870;2023-02-22T19:09:02;23.87;;;14.90;;
11000;SDS011;5553;48.506;8.870;2023-02-22T19:11:32;21.27;;;15.00;;
11000;SDS011;5553;48.506;8.870;2023-02-22T19:14:04;27.77;;;14.83;;
11000;SDS011;5553;48.506;8.870;2023-02-22T19:16:36;21.70;;;15.10;;
11000;SDS011;5553;48.506;8.870;2023-02-22T19:19:04;23.83;;;14.70;;
11000;SDS011;5553;48.506;8.870;2023-02-22T19:21:33;22.20;;;15.17;;
11000;SDS011;5553;48.506;8.870;2023-02-22T19:24:01;26.03;;;15.37;;
11000;SDS011;5553;48.506;8.870;2023-02-22T19:26:30;23.30;;;14.37;;
11000;SDS011;5553;48.506;8.870;2023-02-22T19:29:00;21.40;;;14.97;;
11000;SDS011;5553;48.506;8.870;2023-02-22T19:31:32;23.00;;;14.80;;
11000;SDS011;5553;48.506;8.870;2023-02-22T19:34:05;23.30;;;14.13;;
11000;SDS011;5553;48.506;8.870;2023-02-22T19:36:35;23.30;;;14.53;;
11000;SDS011;5553;48.506;8.870;2023-02-22T19:39:04;27.60;;;14.60;;
11000;SDS011;5553;48.506;8.870;2023-02-22T19:41:33;22.17;;;13.57;;
11000;SDS011;5553;48.506;8.870;2023-02-22T19:44:02;24.57;;;14.33;;
11000;SDS011;5553;48.506;8.870;2023-02-22T19:46:32;24.67;;;14.93;;
11000;SDS011;5553;48.506;8.870;2023-02-22T19:49:03;24.17;;;14.80;;
11000;SDS011;5553;48.506;8.870;2023-02-22T19:51:32;22.77;;;14.57;;
11000;SDS011;5553;48.506;8.870;2023-02-22T19:54:03;21.53;;;13.90;;
11000;SDS011;5553;48.506;8.870;2023-02-22T19:56:33;24.30;;;14.73;;
11000;SDS011;5553;48.506;8.870;2023-02-22T19:59:02;27.10;;;15.60;;
11000;SDS011;5553;48.506;8.870;2023-02-22T20:01:36;23.43;;;14.40;;
11000;SDS011;5553;48.506;8.870;2023-02-22T20:04:08;26.20;;;15.37;;
11000;SDS011;5553;48.506;8.870;2023-02-22T20:06:41;28.13;;;14.77;;
11000;SDS011;5553;48.506;8.870;2023-02-22T20:09:12;25.03;;;14.97;;
11000;SDS011;5553;48.506;8.870;2023-02-22T20:11:42;29.83;;;15.53;;
11000;SDS011;5553;48.506;8.870;2023-02-22T20:14:12;21.47;;;14.17;;
11000;SDS011;5553;48.506;8.870;2023-02-22T20:16:43;23.87;;;14.97;;
11000;SDS011;5553;48.506;8.870;2023-02-22T20:19:14;20.93;;;14.90;;
11000;SDS011;5553;48.506;8.870;2023-02-22T20:21:42;24.03;;;14.50;;
11000;SDS011;5553;48.506;8.870;2023-02-22T20:24:11;22.87;;;15.17;;
11000;SDS011;5553;48.506;8.870;2023-02-22T20:26:42;27.80;;;15.13;;
11000;SDS011;5553;48.506;8.870;2023-02-22T20:29:12;26.27;;;15.93;;
11000;SDS011;5553;48.506;8.870;2023-02-22T20:31:42;28.50;;;15.83;;
11000;SDS011;5553;48.506;8.870;2023-02-22T20:34:16;24.50;;;16.90;;
11000;SDS011;5553;48.506;8.870;2023-02-22T20:36:44;22.27;;;15.57;;
11000;SDS011;5553;48.506;8.870;2023-02-22T20:39:12;25.20;;;15.67;;
11000;SDS011;5553;48.506;8.870;2023-02-22T20:41:42;26.90;;;16.40;;
11000;SDS011;5553;48.506;8.870;2023-02-22T20:44:11;24.93;;;15.23;;
11000;SDS011;5553;48.506;8.870;2023-02-22T20:46:42;24.30;;;14.43;;
11000;SDS011;5553;48.506;8.870;2023-02-22T20:49:11;27.87;;;16.40;;
11000;SDS011;5553;48.506;8.870;2023-02-22T20:51:44;25.30;;;16.33;;
11000;SDS011;5553;48.506;8.870;2023-02-22T20:54:13;26.83;;;16.63;;
11000;SDS011;5553;48.506;8.870;2023-02-22T20:56:42;25.27;;;16.43;;
11000;SDS011;5553;48.506;8.870;2023-02-22T20:59:13;26.90;;;17.07;;
11000;SDS011;5553;48.506;8.870;2023-02-22T21:01:43;24.70;;;14.90;;
11000;SDS011;5553;48.506;8.870;2023-02-22T21:04:14;27.97;;;16.97;;
11000;SDS011;5553;48.506;8.870;2023-02-22T21:06:48;31.70;;;18.00;;
11000;SDS011;5553;48.506;8.870;2023-02-22T21:09:18;27.37;;;17.40;;
11000;SDS011;5553;48.506;8.870;2023-02-22T21:11:47;27.97;;;17.10;;
11000;SDS011;5553;48.506;8.870;2023-02-22T21:14:16;27.33;;;17.27;;
11000;SDS011;5553;48.506;8.870;2023-02-22T21:16:45;29.10;;;17.77;;
11000;SDS011;5553;48.506;8.870;2023-02-22T21:19:14;31.60;;;17.00;;
11000;SDS011;5553;48.506;8.870;2023-02-22T21:21:52;24.33;;;15.23;;
11000;SDS011;5553;48.506;8.870;2023-02-22T21:24:22;25.43;;;16.50;;
11000;SDS011;5553;48.506;8.870;2023-02-22T21:26:51;23.60;;;17.87;;
11000;SDS011;5553;48.506;8.870;2023-02-22T21:29:22;29.00;;;17.43;;
11000;SDS011;5553;48.506;8.870;2023-02-22T21:31:50;30.70;;;17.87;;
11000;SDS011;5553;48.506;8.870;2023-02-22T21:34:19;33.70;;;18.33;;
11000;SDS011;5553;48.506;8.870;2023-02-22T21:36:47;28.77;;;17.53;;
11000;SDS011;5553;48.506;8.870;2023-02-22T21:39:19;27.50;;;16.40;;
11000;SDS011;5553;48.506;8.870;2023-02-22T21:41:52;27.63;;;17.60;;
11000;SDS011;5553;48.506;8.870;2023-02-22T21:44:24;28.40;;;16.40;;
11000;SDS011;5553;48.506;8.870;2023-02-22T21:46:52;30.00;;;17.90;;
11000;SDS011;5553;48.506;8.870;2023-02-22T21:49:21;28.90;;;17.60;;
11000;SDS011;5553;48.506;8.870;2023-02-22T21:51:49;26.80;;;16.60;;
11000;SDS011;5553;48.506;8.870;2023-02-22T21:54:21;27.70;;;16.97;;
11000;SDS011;5553;48.506;8.870;2023-02-22T21:56:52;30.97;;;16.83;;
11000;SDS011;5553;48.506;8.870;2023-02-22T21:59:20;25.93;;;17.27;;
11000;SDS011;5553;48.506;8.870;2023-02-22T22:01:49;29.00;;;17.53;;
11000;SDS011;5553;48.506;8.870;2023-02-22T22:04:20;27.63;;;17.07;;
11000;SDS011;5553;48.506;8.870;2023-02-22T22:06:52;29.17;;;18.07;;
11000;SDS011;5553;48.506;8.870;2023-02-22T22:09:24;24.83;;;15.90;;
11000;SDS011;5553;48.506;8.870;2023-02-22T22:11:57;25.53;;;16.10;;
11000;SDS011;5553;48.506;8.870;2023-02-22T22:14:29;29.13;;;18.77;;